Time;durP1;ratioP1;P1;durP2;ratioP2;P2;SDS_P1;SDS_P2;PMS_P1;PMS_P2;Temp;Humidity;BMP_temperature;BMP_pressure;BME280_temperature;BME280_humidity;BME280_pressure;Samples;Min_cycle;Max_cycle;Signal;HPM_P1;HPM_P2
2023/09/28 00:01:03;;;;;;;0.40;0.40;;;;;;;15.88;69.46;96982.66;29417;233;63004;-55
2023/09/28 00:01:40;;;;;;;0.50;0.50;;;;;;;15.87;69.59;96975.56;29395;206;63009;-54
2023/09/28 00:02:13;;;;;;;0.45;0.45;;;;;;;15.88;69.86;96977.19;29394;202;64009;-53
2023/09/28 00:02:45;;;;;;;0.50;0.50;;;;;;;15.90;69.86;96977.66;29395;220;63009;-54
2023/09/28 00:03:16;;;;;;;0.40;0.40;;;;;;;15.91;69.62;96975.72;29395;213;63004;-53
2023/09/28 00:03:48;;;;;;;0.50;0.50;;;;;;;15.88;69.33;96968.97;29395;214;63008;-54
2023/09/28 00:04:20;;;;;;;0.50;0.50;;;;;;;15.85;69.88;96961.41;29395;220;63005;-54
2023/09/28 00:04:51;;;;;;;0.40;0.40;;;;;;;15.82;69.75;96978.47;29395;197;63009;-54
2023/09/28 00:05:22;;;;;;;0.50;0.50;;;;;;;15.78;70.03;96987.66;29395;203;63005;-55
2023/09/28 00:05:54;;;;;;;0.43;0.43;;;;;;;15.74;69.90;96982.81;29395;221;63009;-63
2023/09/28 00:06:25;;;;;;;0.40;0.40;;;;;;;15.73;70.10;96983.94;29395;197;63010;-54
2023/09/28 00:06:56;;;;;;;0.50;0.50;;;;;;;15.72;70.04;96984.28;29394;249;64013;-54
2023/09/28 00:07:27;;;;;;;0.40;0.40;;;;;;;15.68;70.42;96986.84;29395;249;63004;-54
2023/09/28 00:08:02;;;;;;;0.40;0.40;;;;;;;15.66;70.01;96982.81;29395;229;63009;-54
2023/09/28 00:08:33;;;;;;;0.40;0.40;;;;;;;15.62;70.40;96990.06;29395;238;63004;-54
2023/09/28 00:09:05;;;;;;;0.40;0.40;;;;;;;15.62;70.36;96987.31;29395;200;63009;-54
2023/09/28 00:09:37;;;;;;;0.40;0.40;;;;;;;15.59;70.56;96988.00;29395;239;63004;-53
2023/09/28 00:10:15;;;;;;;0.40;0.40;;;;;;;15.57;70.32;96984.78;29395;207;63008;-54
2023/09/28 00:10:46;;;;;;;0.40;0.40;;;;;;;15.53;70.63;96979.12;29395;212;63004;-54
2023/09/28 00:11:18;;;;;;;0.40;0.40;;;;;;;15.52;70.59;96973.97;29394;230;64013;-54
2023/09/28 00:11:49;;;;;;;0.95;0.95;;;;;;;15.53;70.76;96975.59;29395;204;63005;-53
2023/09/28 00:12:20;;;;;;;0.40;0.40;;;;;;;15.53;70.58;96978.31;29395;217;63009;-54
2023/09/28 00:12:53;;;;;;;0.40;0.40;;;;;;;15.53;70.55;96975.59;29395;227;63017;-53
2023/09/28 00:13:25;;;;;;;0.40;0.40;;;;;;;15.55;70.58;96984.28;29395;240;63014;-53
2023/09/28 00:13:56;;;;;;;0.40;0.40;;;;;;;15.57;70.58;96976.59;29394;231;64009;-54
2023/09/28 00:14:28;;;;;;;0.40;0.40;;;;;;;15.58;69.90;96978.19;29395;230;63009;-53
2023/09/28 00:14:59;;;;;;;0.40;0.40;;;;;;;15.59;69.93;96979.78;29395;203;63004;-55
2023/09/28 00:15:31;;;;;;;0.40;0.40;;;;;;;15.59;69.99;96980.59;29395;241;63009;-54
2023/09/28 00:16:02;;;;;;;0.40;0.40;;;;;;;15.58;69.86;96992.66;29395;222;63000;-54
2023/09/28 00:16:33;;;;;;;0.40;0.40;;;;;;;15.58;69.87;96983.66;29395;199;63009;-54
2023/09/28 00:17:08;;;;;;;0.50;0.50;;;;;;;15.59;70.10;96980.59;29395;203;63004;-54
2023/09/28 00:17:40;;;;;;;0.45;0.45;;;;;;;15.60;69.73;96982.19;29395;243;63008;-53
2023/09/28 00:18:11;;;;;;;0.50;0.50;;;;;;;15.61;69.89;96983.00;29395;215;63004;-53
2023/09/28 00:18:43;;;;;;;0.40;0.40;;;;;;;15.60;70.08;96982.19;29395;215;63009;-54
2023/09/28 00:19:15;;;;;;;0.50;0.50;;;;;;;15.61;70.23;96989.25;29394;207;64009;-54
2023/09/28 00:19:47;;;;;;;0.40;0.40;;;;;;;15.62;70.28;96984.59;29394;219;64014;-54
2023/09/28 00:20:19;;;;;;;0.40;0.40;;;;;;;15.62;70.12;96984.59;29395;219;63005;-53
2023/09/28 00:20:51;;;;;;;0.50;0.50;;;;;;;15.61;70.28;96983.00;29395;238;63025;-54
2023/09/28 00:21:22;;;;;;;0.40;0.40;;;;;;;15.60;70.29;96981.38;29395;205;63005;-54
2023/09/28 00:21:54;;;;;;;0.40;0.40;;;;;;;15.59;70.23;96993.47;29395;203;63009;-53
2023/09/28 00:22:25;;;;;;;0.40;0.40;;;;;;;15.58;70.42;96991.88;29395;273;63005;-53
2023/09/28 00:22:57;;;;;;;0.40;0.40;;;;;;;15.60;70.49;96986.84;29395;259;63009;-54
2023/09/28 00:23:28;;;;;;;0.40;0.40;;;;;;;15.58;70.73;96991.88;29395;214;63011;-53
2023/09/28 00:24:02;;;;;;;0.40;0.40;;;;;;;15.57;70.87;96987.53;29395;214;63009;-54
2023/09/28 00:24:33;;;;;;;0.40;0.40;;;;;;;15.55;70.82;96984.28;29395;199;63004;-53
2023/09/28 00:25:11;;;;;;;0.57;0.57;;;;;;;15.54;70.90;96982.66;29394;209;64029;-53
2023/09/28 00:25:49;;;;;;;0.50;0.50;;;;;;;15.49;70.98;96985.56;29395;235;63004;-65
2023/09/28 00:26:23;;;;;;;0.43;0.43;;;;;;;15.43;70.88;96988.44;29395;236;63009;-54
2023/09/28 00:26:54;;;;;;;0.40;0.40;;;;;;;15.43;70.94;96982.97;29395;204;63005;-55
2023/09/28 00:27:25;;;;;;;1.12;1.12;;;;;;;15.42;70.94;96992.31;29395;364;63009;-54
2023/09/28 00:27:58;;;;;;;0.40;0.40;;;;;;;15.45;71.22;96998.25;29395;248;63005;-53
2023/09/28 00:28:29;;;;;;;0.40;0.40;;;;;;;15.45;71.33;96990.06;29395;199;63009;-54
2023/09/28 00:29:00;;;;;;;0.40;0.40;;;;;;;15.45;71.28;96985.38;29395;276;63005;-54
2023/09/28 00:29:32;;;;;;;0.40;0.40;;;;;;;15.42;71.37;96991.50;29395;320;63009;-53
2023/09/28 00:30:12;;;;;;;0.40;0.40;;;;;;;15.39;71.39;96990.22;29395;209;63004;-54
2023/09/28 00:30:44;;;;;;;0.40;0.40;;;;;;;15.36;71.94;96999.06;29416;379;64013;-54
2023/09/28 00:31:15;;;;;;;0.40;0.40;;;;;;;15.36;71.58;96990.84;29394;206;64009;-54
2023/09/28 00:31:46;;;;;;;0.40;0.40;;;;;;;15.35;71.63;96991.97;29395;219;63009;-53
2023/09/28 00:32:17;;;;;;;0.40;0.40;;;;;;;15.35;71.74;96996.63;29395;224;63004;-54
2023/09/28 00:32:51;;;;;;;0.40;0.40;;;;;;;15.32;71.65;96998.09;29395;197;63008;-54
2023/09/28 00:33:26;;;;;;;0.45;0.45;;;;;;;15.31;71.34;96995.66;29395;204;63005;-55
2023/09/28 00:33:57;;;;;;;0.40;0.40;;;;;;;15.30;71.65;96997.59;29394;206;64014;-54
2023/09/28 00:34:31;;;;;;;0.40;0.40;;;;;;;15.28;71.79;96994.38;29395;205;63005;-54
2023/09/28 00:35:07;;;;;;;0.40;0.40;;;;;;;15.28;71.72;96986.19;29395;208;63009;-62
2023/09/28 00:35:38;;;;;;;0.40;0.40;;;;;;;15.29;71.66;96989.72;29395;234;63005;-54
2023/09/28 00:36:09;;;;;;;0.40;0.40;;;;;;;15.30;71.40;96991.31;29395;202;63009;-54
2023/09/28 00:36:40;;;;;;;0.40;0.40;;;;;;;15.29;71.44;96990.53;29395;247;63005;-63
2023/09/28 00:37:11;;;;;;;0.40;0.40;;;;;;;15.32;71.16;96995.34;29395;197;63009;-54
2023/09/28 00:37:43;;;;;;;1.15;1.15;;;;;;;15.32;71.08;96992.63;29395;226;63004;-53
2023/09/28 00:38:15;;;;;;;0.50;0.50;;;;;;;15.33;71.13;96994.22;29395;318;63009;-54
2023/09/28 00:38:47;;;;;;;0.40;0.40;;;;;;;15.33;71.08;96993.41;29394;202;64009;-53
2023/09/28 00:39:18;;;;;;;0.40;0.40;;;;;;;15.33;71.21;96993.41;29395;225;63009;-54
2023/09/28 00:39:52;;;;;;;0.40;0.40;;;;;;;15.31;71.19;96991.00;29394;247;64004;-54
2023/09/28 00:40:33;;;;;;;0.40;0.40;;;;;;;15.33;71.25;96990.69;29395;221;63008;-54
2023/09/28 00:41:04;;;;;;;0.40;0.40;;;;;;;15.36;71.12;96990.03;29416;288;64005;-54
2023/09/28 00:41:35;;;;;;;0.40;0.40;;;;;;;15.36;70.99;96992.78;29395;232;63009;-54
2023/09/28 00:42:07;;;;;;;0.40;0.40;;;;;;;15.35;71.17;96991.97;29395;214;63014;-54
2023/09/28 00:42:38;;;;;;;0.40;0.40;;;;;;;15.34;71.17;96993.09;29395;231;63009;-54
2023/09/28 00:43:11;;;;;;;0.40;0.40;;;;;;;15.33;71.20;96993.41;29395;259;63005;-53
2023/09/28 00:43:42;;;;;;;0.40;0.40;;;;;;;15.31;71.21;96999.19;29394;344;64013;-53
2023/09/28 00:44:14;;;;;;;0.40;0.40;;;;;;;15.30;71.65;97000.31;29395;239;63005;-52
2023/09/28 00:44:45;;;;;;;0.40;0.40;;;;;;;15.28;71.58;96997.09;29395;252;63009;-53
2023/09/28 00:45:19;;;;;;;0.40;0.40;;;;;;;15.27;71.93;96994.69;29395;315;63004;-53
2023/09/28 00:45:50;;;;;;;0.47;0.47;;;;;;;15.26;71.80;96995.81;29395;249;63009;-53
2023/09/28 00:46:22;;;;;;;0.50;0.50;;;;;;;15.25;72.03;96992.28;29395;225;63004;-54
2023/09/28 00:46:53;;;;;;;0.50;0.50;;;;;;;15.24;71.75;96998.91;29395;199;63009;-54
2023/09/28 00:47:24;;;;;;;0.40;0.40;;;;;;;15.23;72.09;96999.22;29395;205;63004;-54
2023/09/28 00:48:09;;;;;;;0.50;0.50;;;;;;;15.20;72.17;97008.88;29395;229;63008;-53
2023/09/28 00:49:06;;;;;;;0.50;0.50;;;;;;;15.16;72.32;97005.16;29395;222;63005;-54
2023/09/28 00:49:37;;;;;;;0.47;0.47;;;;;;;15.16;72.32;97002.41;29394;210;64014;-54
2023/09/28 00:50:11;;;;;;;0.40;0.40;;;;;;;15.16;72.15;97005.16;29395;199;63017;-53
2023/09/28 00:50:44;;;;;;;0.40;0.40;;;;;;;15.17;71.98;96997.75;29395;257;63009;-54
2023/09/28 00:51:16;;;;;;;0.40;0.40;;;;;;;15.17;72.33;97001.28;29395;280;63005;-55
2023/09/28 00:51:47;;;;;;;0.45;0.45;;;;;;;15.17;72.06;97000.50;29395;237;63025;-54
2023/09/28 00:52:19;;;;;;;0.47;0.47;;;;;;;15.17;72.04;97003.22;29395;205;63005;-54
2023/09/28 00:52:54;;;;;;;0.50;0.50;;;;;;;15.16;71.88;97005.16;29395;215;63009;-54
2023/09/28 00:53:27;;;;;;;0.40;0.40;;;;;;;15.14;71.69;96999.19;29394;329;64009;-54
2023/09/28 00:54:00;;;;;;;0.50;0.50;;;;;;;15.12;71.89;97004.19;29395;230;63009;-53
2023/09/28 00:54:32;;;;;;;0.40;0.40;;;;;;;15.12;72.05;97004.19;29394;225;64021;-56
2023/09/28 00:55:05;;;;;;;0.50;0.50;;;;;;;15.10;72.33;97000.97;29395;236;63009;-53
2023/09/28 00:55:39;;;;;;;0.40;0.40;;;;;;;15.09;72.20;97002.09;29395;212;63004;-53
2023/09/28 00:56:12;;;;;;;0.40;0.40;;;;;;;15.09;72.07;96997.41;29395;298;63009;-54
2023/09/28 00:56:45;;;;;;;0.40;0.40;;;;;;;15.08;71.99;96998.53;29395;291;63005;-54
2023/09/28 00:57:17;;;;;;;0.40;0.40;;;;;;;15.07;72.07;96998.87;29395;243;63009;-54
2023/09/28 00:57:51;;;;;;;0.40;0.40;;;;;;;15.07;72.02;97001.59;29395;197;63005;-54
2023/09/28 00:58:23;;;;;;;0.50;0.50;;;;;;;15.08;71.87;96995.00;29395;224;63009;-53
2023/09/28 00:58:56;;;;;;;0.40;0.40;;;;;;;15.09;71.77;97002.09;29395;219;63000;-54
2023/09/28 00:59:27;;;;;;;0.40;0.40;;;;;;;15.09;72.00;97004.81;29395;215;63009;-53
2023/09/28 00:59:59;;;;;;;0.40;0.40;;;;;;;15.09;71.88;96996.63;29394;306;64009;-53
2023/09/28 01:00:34;;;;;;;0.40;0.40;;;;;;;15.11;72.20;96990.84;29395;205;63009;-53
2023/09/28 01:01:06;;;;;;;0.40;0.40;;;;;;;15.12;71.66;96998.72;29395;217;63013;-53
2023/09/28 01:01:39;;;;;;;0.40;0.40;;;;;;;15.13;71.74;96988.59;29395;249;63004;-54
2023/09/28 01:02:10;;;;;;;0.43;0.43;;;;;;;15.12;71.07;97001.44;29395;219;63004;-53
2023/09/28 01:02:41;;;;;;;0.40;0.40;;;;;;;15.15;71.07;96992.59;29395;286;63027;-54
2023/09/28 01:03:13;;;;;;;0.50;0.50;;;;;;;15.16;70.95;96983.28;29395;285;63004;-53
2023/09/28 01:03:45;;;;;;;0.50;0.50;;;;;;;15.16;71.20;96993.41;29394;202;64014;-54
2023/09/28 01:04:17;;;;;;;0.40;0.40;;;;;;;15.16;71.00;96994.22;29395;207;63005;-54
2023/09/28 01:04:48;;;;;;;0.40;0.40;;;;;;;15.16;71.34;96994.22;29395;272;63009;-53
2023/09/28 01:05:23;;;;;;;0.40;0.40;;;;;;;15.16;71.24;96994.22;29394;296;64005;-54
2023/09/28 01:05:54;;;;;;;0.40;0.40;;;;;;;15.16;71.24;96982.47;29395;202;63009;-55
2023/09/28 01:06:25;;;;;;;0.40;0.40;;;;;;;15.16;70.94;96988.75;29394;225;64009;-54
2023/09/28 01:06:57;;;;;;;0.40;0.40;;;;;;;15.16;70.75;96988.75;29395;221;63009;-53
2023/09/28 01:07:30;;;;;;;0.50;0.50;;;;;;;15.16;70.64;96988.75;29395;197;63005;-53
2023/09/28 01:08:15;;;;;;;0.40;0.40;;;;;;;15.17;70.73;96992.28;29395;340;63009;-54
2023/09/28 01:08:46;;;;;;;0.50;0.50;;;;;;;15.16;70.83;96983.28;29395;220;63004;-54
2023/09/28 01:09:23;;;;;;;0.40;0.40;;;;;;;15.17;70.48;96990.37;29395;235;63009;-54
2023/09/28 01:09:55;;;;;;;0.40;0.40;;;;;;;15.16;70.09;96986.03;29395;199;63004;-55
2023/09/28 01:10:29;;;;;;;0.40;0.40;;;;;;;15.16;70.17;96988.75;29394;235;64013;-53
2023/09/28 01:11:02;;;;;;;0.40;0.40;;;;;;;15.15;70.05;96984.41;29395;322;63004;-54
2023/09/28 01:11:34;;;;;;;0.50;0.50;;;;;;;15.17;70.20;96984.91;29395;229;63009;-54
2023/09/28 01:12:08;;;;;;;0.50;0.50;;;;;;;15.17;70.39;96987.62;29395;221;63005;-54
2023/09/28 01:12:39;;;;;;;0.40;0.40;;;;;;;15.17;69.90;96987.62;29395;233;63009;-53
2023/09/28 01:13:15;;;;;;;0.40;0.40;;;;;;;15.17;70.43;96990.37;29395;271;63005;-53
2023/09/28 01:13:47;;;;;;;0.50;0.50;;;;;;;15.17;70.35;96987.62;29395;202;63009;-53
2023/09/28 01:14:21;;;;;;;0.40;0.40;;;;;;;15.16;70.23;96991.50;29395;209;63005;-53
2023/09/28 01:14:56;;;;;;;0.40;0.40;;;;;;;15.16;70.23;96991.50;29395;199;63009;-54
2023/09/28 01:15:28;;;;;;;0.40;0.40;;;;;;;15.16;70.16;96988.75;29394;210;64009;-54
2023/09/28 01:15:59;;;;;;;0.40;0.40;;;;;;;15.16;70.21;96988.75;29395;212;63009;-54
2023/09/28 01:16:31;;;;;;;0.40;0.40;;;;;;;15.17;69.86;96990.37;29394;301;64009;-53
2023/09/28 01:17:03;;;;;;;0.40;0.40;;;;;;;15.19;70.18;96982.66;29395;235;63025;-54
2023/09/28 01:17:34;;;;;;;0.40;0.40;;;;;;;15.19;69.71;96988.13;29395;250;63015;-54
2023/09/28 01:18:15;;;;;;;0.40;0.40;;;;;;;15.19;69.71;96982.66;29395;216;63008;-53
2023/09/28 01:18:46;;;;;;;0.40;0.40;;;;;;;15.20;69.88;96994.38;29417;236;63005;-54
2023/09/28 01:19:18;;;;;;;0.40;0.40;;;;;;;15.21;69.94;96996.00;29395;286;63009;-54
2023/09/28 01:19:49;;;;;;;0.40;0.40;;;;;;;15.18;70.13;96996.63;29395;220;63005;-54
2023/09/28 01:20:31;;;;;;;0.50;0.50;;;;;;;15.17;70.29;97005.97;29395;339;63005;-54
2023/09/28 01:21:05;;;;;;;0.50;0.50;;;;;;;15.13;70.39;97000.31;29395;216;63005;-54
2023/09/28 01:21:39;;;;;;;0.40;0.40;;;;;;;15.13;70.60;97004.97;29394;224;64013;-53
2023/09/28 01:22:14;;;;;;;0.40;0.40;;;;;;;15.11;70.62;96997.09;29394;202;64009;-53
2023/09/28 01:22:48;;;;;;;0.50;0.50;;;;;;;15.10;70.99;97000.97;29395;226;63009;-53
2023/09/28 01:23:20;;;;;;;0.40;0.40;;;;;;;15.10;70.78;97000.97;29395;224;63004;-54
2023/09/28 01:23:51;;;;;;;0.40;0.40;;;;;;;15.10;70.61;97000.97;29395;235;63009;-54
2023/09/28 01:24:22;;;;;;;0.40;0.40;;;;;;;15.08;70.97;96997.75;29395;196;63004;-54
2023/09/28 01:24:54;;;;;;;0.40;0.40;;;;;;;15.07;71.24;97007.06;29395;249;63008;-53
2023/09/28 01:25:26;;;;;;;0.40;0.40;;;;;;;15.05;71.08;97003.84;29395;220;63005;-66
2023/09/28 01:25:57;;;;;;;0.50;0.50;;;;;;;15.04;71.65;97004.97;29395;198;63009;-54
2023/09/28 01:26:31;;;;;;;0.50;0.50;;;;;;;15.01;71.41;97000.13;29394;217;64009;-54
2023/09/28 01:27:03;;;;;;;0.50;0.50;;;;;;;15.00;71.35;97002.06;29394;216;64013;-54
2023/09/28 01:27:34;;;;;;;0.50;0.50;;;;;;;15.01;71.54;96992.75;29395;215;63005;-54
2023/09/28 01:28:07;;;;;;;0.40;0.40;;;;;;;15.01;71.30;97002.88;29395;202;63009;-56
2023/09/28 01:28:38;;;;;;;0.47;0.47;;;;;;;15.00;71.37;97003.97;29395;205;63005;-54
2023/09/28 01:29:10;;;;;;;0.40;0.40;;;;;;;14.99;71.25;96999.63;29395;196;63009;-54
2023/09/28 01:29:41;;;;;;;0.50;0.50;;;;;;;14.99;71.06;96999.63;29395;202;63004;-54
2023/09/28 01:30:14;;;;;;;0.50;0.50;;;;;;;14.99;71.20;97003.19;29395;214;63009;-54
2023/09/28 01:30:47;;;;;;;0.47;0.47;;;;;;;15.01;71.01;97005.59;29395;197;63004;-54
2023/09/28 01:31:18;;;;;;;0.40;0.40;;;;;;;15.00;71.17;97004.78;29394;199;64013;-65
2023/09/28 01:31:49;;;;;;;0.50;0.50;;;;;;;14.98;71.40;96998.03;29395;198;63004;-52
2023/09/28 01:32:21;;;;;;;0.50;0.50;;;;;;;14.96;71.57;97003.00;29395;204;63008;-54
2023/09/28 01:32:53;;;;;;;0.40;0.40;;;;;;;14.94;71.43;97007.97;29395;218;63004;-54
2023/09/28 01:33:24;;;;;;;0.40;0.40;;;;;;;14.93;71.90;97006.37;29395;221;63017;-54
2023/09/28 01:33:55;;;;;;;0.40;0.40;;;;;;;14.91;72.00;97009.41;29394;250;64009;-55
2023/09/28 01:34:26;;;;;;;0.40;0.40;;;;;;;14.90;72.15;97007.03;29395;229;63019;-53
2023/09/28 01:34:57;;;;;;;0.40;0.40;;;;;;;14.89;72.22;97014.44;29395;203;63005;-54
2023/09/28 01:35:30;;;;;;;0.40;0.40;;;;;;;14.89;72.36;97010.88;29395;263;63019;-54
2023/09/28 01:36:01;;;;;;;0.40;0.40;;;;;;;14.87;72.31;97008.47;29395;206;63005;-53
2023/09/28 01:36:32;;;;;;;0.40;0.40;;;;;;;14.88;72.31;97009.28;29395;281;63009;-53
2023/09/28 01:37:03;;;;;;;0.40;0.40;;;;;;;14.87;72.31;97013.13;29395;230;63005;-54
2023/09/28 01:38:02;;;;;;;0.40;0.40;;;;;;;14.86;72.65;97016.97;29395;210;63009;-54
2023/09/28 01:38:40;;;;;;;0.40;0.40;;;;;;;14.84;72.35;97008.31;29395;235;63009;-53
2023/09/28 01:39:12;;;;;;;0.40;0.40;;;;;;;14.82;72.32;97010.53;29394;202;64013;-53
2023/09/28 01:39:43;;;;;;;0.40;0.40;;;;;;;14.83;72.33;97001.22;29395;261;63009;-54
2023/09/28 01:40:16;;;;;;;0.40;0.40;;;;;;;14.82;72.32;97005.09;29395;326;63008;-54
2023/09/28 01:40:50;;;;;;;0.50;0.50;;;;;;;14.82;72.33;97000.44;29395;241;63005;-53
2023/09/28 01:41:21;;;;;;;0.50;0.50;;;;;;;14.83;72.09;97003.97;29395;261;63009;-54
2023/09/28 01:41:52;;;;;;;0.50;0.50;;;;;;;14.84;72.18;97000.91;29395;259;63001;-53
2023/09/28 01:42:23;;;;;;;0.40;0.40;;;;;;;14.87;71.88;96999.47;29395;206;63009;-54
2023/09/28 01:42:55;;;;;;;0.40;0.40;;;;;;;14.86;71.55;97001.41;29395;202;63005;-54
2023/09/28 01:43:26;;;;;;;0.40;0.40;;;;;;;14.88;71.52;97001.88;29395;302;63023;-64
2023/09/28 01:43:57;;;;;;;0.40;0.40;;;;;;;14.90;71.42;97001.56;29394;227;64009;-54
2023/09/28 01:44:28;;;;;;;0.40;0.40;;;;;;;14.90;71.26;96996.09;29395;199;63009;-53
2023/09/28 01:45:00;;;;;;;0.40;0.40;;;;;;;14.91;71.37;97000.41;29395;250;63004;-54
2023/09/28 01:45:31;;;;;;;0.40;0.40;;;;;;;14.92;70.93;97004.75;29395;197;63009;-54
2023/09/28 01:46:03;;;;;;;0.40;0.40;;;;;;;14.93;71.12;96998.19;29395;215;63004;-53
2023/09/28 01:46:34;;;;;;;0.40;0.40;;;;;;;14.93;71.39;96996.25;29395;227;63009;-54
2023/09/28 01:47:05;;;;;;;0.40;0.40;;;;;;;14.95;71.14;96993.19;29395;196;63004;-53
2023/09/28 01:47:36;;;;;;;0.40;0.40;;;;;;;14.95;71.04;96993.19;29395;289;63008;-53
2023/09/28 01:48:08;;;;;;;0.40;0.40;;;;;;;14.96;71.07;96994.81;29395;309;63005;-53
2023/09/28 01:48:39;;;;;;;0.40;0.40;;;;;;;14.95;70.94;96999.47;29395;280;63009;-61
2023/09/28 01:49:10;;;;;;;0.40;0.40;;;;;;;14.95;71.28;96993.19;29394;210;64009;-53
2023/09/28 01:49:41;;;;;;;0.50;0.50;;;;;;;14.96;70.96;96995.63;29395;237;63009;-53
2023/09/28 01:50:13;;;;;;;0.50;0.50;;;;;;;14.97;70.67;96991.75;29395;213;63005;-53
2023/09/28 01:50:44;;;;;;;0.50;0.50;;;;;;;14.97;71.00;96990.97;29395;319;63009;-53
2023/09/28 01:51:18;;;;;;;0.47;0.47;;;;;;;14.97;70.94;96994.50;29395;222;63005;-54
2023/09/28 01:51:50;;;;;;;0.50;0.50;;;;;;;14.98;71.07;96992.56;29395;216;63009;-53
2023/09/28 01:52:21;;;;;;;0.50;0.50;;;;;;;14.98;70.85;96995.31;29395;217;63004;-53
2023/09/28 01:52:52;;;;;;;0.40;0.40;;;;;;;14.96;70.82;96986.62;29395;210;63009;-54
2023/09/28 01:53:23;;;;;;;0.47;0.47;;;;;;;14.96;70.89;96994.81;29395;203;63004;-54
2023/09/28 01:53:54;;;;;;;0.40;0.40;;;;;;;14.96;71.08;96989.34;29395;221;63004;-54
2023/09/28 01:54:26;;;;;;;0.40;0.40;;;;;;;14.95;71.20;96999.47;29394;197;64009;-54
2023/09/28 01:54:57;;;;;;;0.50;0.50;;;;;;;14.96;71.16;96994.81;29395;247;63018;-53
2023/09/28 01:55:29;;;;;;;0.50;0.50;;;;;;;14.96;70.91;96989.34;29395;246;63004;-53
2023/09/28 01:56:02;;;;;;;0.40;0.40;;;;;;;14.96;71.03;96989.34;29394;197;64009;-53
2023/09/28 01:56:33;;;;;;;0.95;0.95;;;;;;;14.96;70.96;96995.63;29395;278;63005;-54
2023/09/28 01:57:04;;;;;;;0.40;0.40;;;;;;;14.96;70.80;96992.88;29395;205;63009;-53
2023/09/28 01:57:35;;;;;;;0.40;0.40;;;;;;;14.97;70.92;96999.16;29395;246;63005;-54
2023/09/28 01:58:10;;;;;;;0.40;0.40;;;;;;;14.96;70.71;96990.16;29395;237;63009;-55
2023/09/28 01:58:41;;;;;;;0.40;0.40;;;;;;;14.96;70.94;96994.81;29395;281;63005;-53
2023/09/28 01:59:14;;;;;;;0.50;0.50;;;;;;;14.95;70.88;96987.75;29395;202;63009;-54
2023/09/28 01:59:46;;;;;;;0.40;0.40;;;;;;;14.97;70.68;96991.75;29394;236;64009;-54
2023/09/28 02:00:22;;;;;;;0.50;0.50;;;;;;;14.98;70.37;96995.31;29395;231;63009;-54
2023/09/28 02:00:53;;;;;;;0.40;0.40;;;;;;;14.99;70.46;96994.97;29395;219;63004;-64
2023/09/28 02:01:28;;;;;;;0.40;0.40;;;;;;;15.01;70.54;96991.94;29395;257;63009;-53
2023/09/28 02:02:01;;;;;;;0.40;0.40;;;;;;;15.02;70.18;96993.53;29395;432;63004;-53
2023/09/28 02:02:34;;;;;;;0.40;0.40;;;;;;;15.03;70.12;96989.69;29395;220;63008;-53
2023/09/28 02:03:08;;;;;;;0.50;0.50;;;;;;;15.02;70.29;96986.16;29395;203;63004;-64
2023/09/28 02:03:39;;;;;;;0.40;0.40;;;;;;;15.02;70.38;96996.28;29394;235;64009;-54
2023/09/28 02:04:11;;;;;;;0.40;0.40;;;;;;;15.01;70.12;96991.94;29395;246;63005;-53
2023/09/28 02:04:44;;;;;;;0.40;0.40;;;;;;;15.00;70.30;96993.06;29395;197;63009;-53
2023/09/28 02:05:23;;;;;;;0.50;0.50;;;;;;;14.99;70.59;96999.63;29394;217;64009;-54
2023/09/28 02:05:55;;;;;;;0.40;0.40;;;;;;;14.97;70.39;96993.69;29395;222;63009;-53
2023/09/28 02:06:29;;;;;;;0.40;0.40;;;;;;;14.97;70.22;96990.97;29395;242;63000;-54
2023/09/28 02:07:00;;;;;;;0.40;0.40;;;;;;;14.96;70.47;96990.16;29395;363;63009;-53
2023/09/28 02:07:32;;;;;;;0.50;0.50;;;;;;;14.95;70.28;96987.75;29395;217;63004;-54
2023/09/28 02:08:05;;;;;;;0.40;0.40;;;;;;;14.96;70.64;96994.81;29395;197;63009;-54
2023/09/28 02:08:37;;;;;;;0.40;0.40;;;;;;;14.98;70.45;96995.31;29395;214;63004;-54
2023/09/28 02:09:10;;;;;;;0.40;0.40;;;;;;;14.97;70.26;96988.22;29395;227;63009;-53
2023/09/28 02:09:42;;;;;;;0.40;0.40;;;;;;;14.96;70.45;96989.34;29395;205;63004;-53
2023/09/28 02:10:14;;;;;;;0.40;0.40;;;;;;;14.98;70.45;96987.09;29395;198;63008;-54
2023/09/28 02:10:46;;;;;;;0.40;0.40;;;;;;;14.94;70.44;96986.94;29394;313;64009;-53
2023/09/28 02:11:17;;;;;;;0.40;0.40;;;;;;;14.93;70.70;96987.25;29395;223;63009;-52
2023/09/28 02:11:48;;;;;;;0.40;0.40;;;;;;;14.91;70.69;96993.03;29395;219;63005;-53
2023/09/28 02:12:19;;;;;;;0.40;0.40;;;;;;;14.90;70.77;96993.38;29395;226;63009;-52
2023/09/28 02:12:51;;;;;;;0.50;0.50;;;;;;;14.91;70.91;96992.22;29395;225;63018;-55
2023/09/28 02:13:22;;;;;;;0.40;0.40;;;;;;;14.92;70.67;96982.91;29395;337;63009;-53
2023/09/28 02:13:53;;;;;;;0.40;0.40;;;;;;;14.90;70.63;96985.97;29395;228;63005;-53
2023/09/28 02:14:24;;;;;;;0.50;0.50;;;;;;;14.89;70.77;96989.84;29395;225;63009;-54
2023/09/28 02:14:56;;;;;;;0.50;0.50;;;;;;;14.89;70.86;96983.56;29395;212;63000;-54
2023/09/28 02:15:27;;;;;;;0.40;0.40;;;;;;;14.89;70.78;96983.56;29395;235;63009;-54
2023/09/28 02:15:59;;;;;;;0.40;0.40;;;;;;;14.87;71.12;96988.53;29394;213;64009;-53
2023/09/28 02:16:30;;;;;;;0.47;0.47;;;;;;;14.86;71.12;96981.47;29395;212;63009;-53
2023/09/28 02:17:01;;;;;;;0.40;0.40;;;;;;;14.84;71.13;96994.62;29395;197;63004;-54
2023/09/28 02:17:32;;;;;;;0.50;0.50;;;;;;;14.83;71.19;96984.84;29395;196;63008;-53
2023/09/28 02:18:04;;;;;;;0.40;0.40;;;;;;;14.82;71.10;96985.97;29395;269;63004;-54
2023/09/28 02:18:35;;;;;;;0.40;0.40;;;;;;;14.82;71.17;96991.41;29395;202;63009;-53
2023/09/28 02:19:11;;;;;;;0.40;0.40;;;;;;;14.81;70.72;96984.34;29395;288;63014;-53
2023/09/28 02:19:42;;;;;;;0.40;0.40;;;;;;;14.81;71.18;96987.06;29395;218;63009;-55
2023/09/28 02:20:15;;;;;;;0.40;0.40;;;;;;;14.82;71.01;96983.22;29395;217;63018;-52
2023/09/28 02:20:47;;;;;;;0.40;0.40;;;;;;;14.82;70.89;96983.22;29395;235;63023;-53
2023/09/28 02:21:18;;;;;;;0.40;0.40;;;;;;;14.81;71.08;96987.88;29394;233;64009;-54
2023/09/28 02:21:51;;;;;;;0.40;0.40;;;;;;;14.81;70.83;96982.41;29395;244;63009;-54
2023/09/28 02:22:23;;;;;;;0.50;0.50;;;;;;;14.80;70.95;96980.81;29395;225;63004;-54
2023/09/28 02:22:54;;;;;;;0.50;0.50;;;;;;;14.80;71.00;96989.00;29395;273;63004;-54
2023/09/28 02:23:26;;;;;;;0.40;0.40;;;;;;;14.81;71.10;96993.34;29395;215;63004;-53
2023/09/28 02:23:58;;;;;;;0.40;0.40;;;;;;;14.80;71.19;96990.94;29395;223;63009;-53
2023/09/28 02:24:30;;;;;;;0.40;0.40;;;;;;;14.79;70.98;96992.06;29395;375;63004;-53
2023/09/28 02:25:08;;;;;;;0.40;0.40;;;;;;;14.79;71.37;96992.84;29395;225;63009;-53
2023/09/28 02:25:39;;;;;;;0.40;0.40;;;;;;;14.79;71.22;96984.66;29395;223;63005;-53
2023/09/28 02:26:11;;;;;;;0.40;0.40;;;;;;;14.78;71.14;96993.97;29395;254;63015;-54
2023/09/28 02:26:44;;;;;;;0.40;0.40;;;;;;;14.80;71.10;96991.75;29394;245;64009;-53
2023/09/28 02:27:15;;;;;;;0.40;0.40;;;;;;;14.79;70.95;96990.13;29395;315;63009;-64
2023/09/28 02:27:48;;;;;;;0.40;0.40;;;;;;;14.78;70.92;96993.19;29394;274;64005;-53
2023/09/28 02:28:19;;;;;;;0.40;0.40;;;;;;;14.78;71.30;96993.19;29395;214;63009;-53
2023/09/28 02:28:52;;;;;;;0.40;0.40;;;;;;;14.77;71.30;96997.03;29395;220;63018;-54
2023/09/28 02:29:23;;;;;;;0.40;0.40;;;;;;;14.74;71.37;96993.00;29395;271;63009;-54
2023/09/28 02:29:54;;;;;;;0.40;0.40;;;;;;;14.73;71.36;97002.31;29395;198;63004;-53
2023/09/28 02:30:26;;;;;;;0.40;0.40;;;;;;;14.70;71.37;96995.56;29395;198;63009;-53
2023/09/28 02:31:07;;;;;;;0.50;0.50;;;;;;;14.70;71.71;96998.28;29395;280;63004;-54
2023/09/28 02:31:44;;;;;;;0.50;0.50;;;;;;;14.67;71.64;96996.19;29417;233;63008;-53
2023/09/28 02:32:16;;;;;;;0.50;0.50;;;;;;;14.68;71.50;96999.72;29394;218;64008;-53
2023/09/28 02:32:49;;;;;;;0.50;0.50;;;;;;;14.68;71.57;97003.25;29395;197;63009;-53
2023/09/28 02:33:21;;;;;;;0.50;0.50;;;;;;;14.68;71.55;96997.81;29395;199;63005;-53
2023/09/28 02:33:52;;;;;;;0.50;0.50;;;;;;;14.67;71.52;96998.91;29395;260;63009;-53
2023/09/28 02:34:24;;;;;;;0.50;0.50;;;;;;;14.68;71.64;97003.25;29395;239;63000;-53
2023/09/28 02:34:56;;;;;;;0.40;0.40;;;;;;;14.67;71.53;96998.13;29395;372;63016;-53
2023/09/28 02:35:27;;;;;;;0.50;0.50;;;;;;;14.67;71.65;97001.66;29395;214;63005;-54
2023/09/28 02:35:58;;;;;;;2.45;2.33;;;;;;;14.68;71.56;96997.81;29395;214;63009;-54